createdAt,value
2018-10-21T00:00:42.811Z,14.12
2018-10-21T00:03:11.956Z,14.09
2018-10-21T00:05:41.012Z,14.02
2018-10-21T00:08:10.080Z,14.05
2018-10-21T00:10:39.213Z,13.98
2018-10-21T00:13:08.251Z,14.00
2018-10-21T00:15:37.562Z,13.99
2018-10-21T00:18:06.685Z,13.87
2018-10-21T00:20:35.804Z,13.89
2018-10-21T00:23:05.120Z,13.89
2018-10-21T00:25:34.089Z,13.81
2018-10-21T00:28:03.245Z,13.68
2018-10-21T00:30:32.630Z,13.59
2018-10-21T00:33:01.568Z,13.58
2018-10-21T00:35:30.439Z,13.61
2018-10-21T00:37:59.536Z,13.65
2018-10-21T00:40:28.718Z,13.70
2018-10-21T00:42:57.782Z,13.71
2018-10-21T00:45:27.168Z,13.79
2018-10-21T00:47:56.199Z,13.75
2018-10-21T00:50:25.121Z,13.73
2018-10-21T00:52:54.647Z,13.68
2018-10-21T00:55:23.824Z,13.65
2018-10-21T00:57:53.063Z,13.69
2018-10-21T01:00:22.169Z,13.75
2018-10-21T01:02:51.360Z,13.77
2018-10-21T01:05:20.426Z,13.62
2018-10-21T01:07:49.532Z,13.49
2018-10-21T01:10:18.588Z,13.45
2018-10-21T01:12:47.701Z,13.35
2018-10-21T01:15:17.037Z,13.42
2018-10-21T01:17:45.991Z,13.45
2018-10-21T01:20:14.852Z,13.43
2018-10-21T01:22:43.852Z,13.37
2018-10-21T01:25:12.913Z,13.30
2018-10-21T01:27:42.556Z,13.31
2018-10-21T01:30:12.892Z,13.39
2018-10-21T01:32:41.845Z,13.46
2018-10-21T01:35:11.021Z,13.43
2018-10-21T01:37:40.146Z,13.45
2018-10-21T01:40:41.478Z,13.47
2018-10-21T01:43:12.140Z,13.51
2018-10-21T01:45:41.095Z,13.46
2018-10-21T01:48:11.135Z,13.43
2018-10-21T01:50:40.332Z,13.36
2018-10-21T01:53:10.442Z,13.36
2018-10-21T01:55:39.546Z,13.25
2018-10-21T01:58:09.131Z,13.25
2018-10-21T02:00:38.673Z,13.26
2018-10-21T02:03:07.683Z,13.26
2018-10-21T02:05:37.355Z,13.21
2018-10-21T02:08:06.665Z,13.19
2018-10-21T02:10:35.864Z,13.22
2018-10-21T02:13:04.800Z,13.19
2018-10-21T02:15:33.901Z,13.17
2018-10-21T02:18:03.129Z,13.08
2018-10-21T02:20:32.405Z,13.12
2018-10-21T02:23:01.433Z,13.21
2018-10-21T02:25:30.595Z,13.28
2018-10-21T02:27:59.572Z,13.33
2018-10-21T02:30:29.740Z,13.27
2018-10-21T02:33:01.380Z,13.23
2018-10-21T02:35:31.906Z,13.34
2018-10-21T02:38:02.214Z,13.45
2018-10-21T02:41:55.623Z,13.49
2018-10-21T02:44:30.561Z,13.48
2018-10-21T02:46:59.687Z,13.43
2018-10-21T02:49:28.739Z,13.38
2018-10-21T02:52:03.289Z,13.36
2018-10-21T02:54:32.752Z,13.37
2018-10-21T02:57:01.872Z,13.35
2018-10-21T02:59:31.319Z,13.38
2018-10-21T03:02:00.389Z,13.37
2018-10-21T03:04:29.461Z,13.29
2018-10-21T03:06:58.876Z,13.28
2018-10-21T03:09:28.306Z,13.31
2018-10-21T03:11:57.334Z,13.36
2018-10-21T03:14:26.572Z,13.29
2018-10-21T03:16:55.711Z,13.22
2018-10-21T03:19:24.641Z,13.15
2018-10-21T03:21:53.840Z,13.07
2018-10-21T03:24:22.848Z,13.01
2018-10-21T03:26:52.034Z,12.94
2018-10-21T03:29:21.422Z,12.90
2018-10-21T03:31:50.500Z,12.83
2018-10-21T03:34:19.552Z,12.76
2018-10-21T03:36:48.568Z,12.72
2018-10-21T03:39:17.528Z,12.68
2018-10-21T03:41:46.431Z,12.66
2018-10-21T03:44:15.883Z,12.65
2018-10-21T03:46:44.833Z,12.79
2018-10-21T03:49:13.991Z,12.77
2018-10-21T03:51:43.349Z,12.66
2018-10-21T03:54:12.425Z,12.48
2018-10-21T03:56:41.508Z,12.35
2018-10-21T03:59:11.043Z,12.27
2018-10-21T04:01:40.056Z,12.19
2018-10-21T04:04:09.213Z,12.21
2018-10-21T04:06:38.529Z,12.14
2018-10-21T04:09:07.992Z,12.08
2018-10-21T04:11:37.064Z,12.13
2018-10-21T04:14:06.413Z,12.10
2018-10-21T04:16:35.496Z,12.03
2018-10-21T04:19:04.550Z,12.01
2018-10-21T04:21:33.568Z,11.94
2018-10-21T04:24:02.611Z,11.91
2018-10-21T04:26:31.523Z,11.83
2018-10-21T04:29:00.585Z,11.75
2018-10-21T04:31:29.625Z,11.71
2018-10-21T04:33:58.868Z,11.79
2018-10-21T04:36:30.054Z,11.80
2018-10-21T04:40:11.561Z,11.87
2018-10-21T04:42:40.742Z,11.82
2018-10-21T04:45:10.615Z,11.69
2018-10-21T04:47:39.608Z,11.64
2018-10-21T04:50:09.730Z,11.70
2018-10-21T04:52:38.753Z,11.74
2018-10-21T04:55:10.734Z,11.75
2018-10-21T04:57:41.003Z,11.71
2018-10-21T05:00:12.672Z,11.67
2018-10-21T05:02:41.730Z,11.59
2018-10-21T05:05:12.215Z,11.53
2018-10-21T05:07:41.447Z,11.50
2018-10-21T05:10:18.968Z,11.53
2018-10-21T05:12:48.024Z,11.59
2018-10-21T05:15:17.250Z,11.68
2018-10-21T05:17:46.216Z,11.72
2018-10-21T05:20:19.451Z,11.71
2018-10-21T05:22:56.926Z,11.88
2018-10-21T05:25:35.000Z,12.04
2018-10-21T05:28:12.747Z,12.06
2018-10-21T05:30:43.986Z,12.16
2018-10-21T05:33:14.296Z,12.24
2018-10-21T05:35:44.714Z,12.40
2018-10-21T05:38:15.448Z,12.48
2018-10-21T05:40:47.387Z,12.52
2018-10-21T05:43:19.062Z,12.61
2018-10-21T05:45:48.248Z,12.71
2018-10-21T05:48:17.442Z,12.75
2018-10-21T05:50:46.743Z,12.83
2018-10-21T05:53:15.663Z,12.83
2018-10-21T05:55:44.760Z,12.87
2018-10-21T05:58:14.385Z,12.83
2018-10-21T06:00:44.990Z,13.02
2018-10-21T06:03:14.250Z,13.20
2018-10-21T06:05:46.700Z,13.28
2018-10-21T06:08:17.017Z,13.33
2018-10-21T06:10:49.253Z,13.39
2018-10-21T06:13:19.610Z,13.49
2018-10-21T06:15:48.589Z,13.58
2018-10-21T06:18:22.984Z,13.67
2018-10-21T06:20:54.525Z,13.78
2018-10-21T06:23:23.796Z,13.78
2018-10-21T06:25:52.915Z,13.87
2018-10-21T06:28:21.900Z,13.93
2018-10-21T06:30:51.066Z,13.99
2018-10-21T06:33:19.933Z,14.11
2018-10-21T06:35:48.877Z,14.28
2018-10-21T06:38:19.673Z,14.37
2018-10-21T06:40:48.636Z,14.54
2018-10-21T06:43:17.732Z,14.75
2018-10-21T06:45:46.910Z,14.82
2018-10-21T06:48:16.110Z,15.01
2018-10-21T06:50:45.122Z,15.11
2018-10-21T06:53:14.716Z,15.24
2018-10-21T06:55:44.208Z,15.33
2018-10-21T06:58:13.220Z,15.40
2018-10-21T07:00:42.545Z,15.42
2018-10-21T07:03:11.594Z,15.58
2018-10-21T07:06:19.074Z,15.69
2018-10-21T07:08:49.259Z,15.79
2018-10-21T07:11:18.596Z,15.80
2018-10-21T07:13:47.999Z,15.88
2018-10-21T07:16:17.141Z,15.97
2018-10-21T07:18:47.251Z,16.06
2018-10-21T07:21:16.873Z,16.17
2018-10-21T07:23:46.250Z,16.26
2018-10-21T07:26:15.326Z,16.29
2018-10-21T07:28:44.589Z,16.34
2018-10-21T07:31:13.641Z,16.38
2018-10-21T07:33:42.702Z,16.40
2018-10-21T07:36:12.099Z,16.52
2018-10-21T07:38:40.949Z,16.64
2018-10-21T07:41:09.944Z,16.78
2018-10-21T07:43:39.001Z,16.90
2018-10-21T07:46:08.201Z,17.01
2018-10-21T07:48:37.236Z,17.14
2018-10-21T07:51:07.676Z,17.17
2018-10-21T07:53:36.755Z,17.13
2018-10-21T07:56:05.946Z,17.17
2018-10-21T07:58:35.525Z,17.31
2018-10-21T08:01:04.709Z,17.42
2018-10-21T08:03:33.880Z,17.56
2018-10-21T08:06:29.213Z,17.65
2018-10-21T08:08:58.881Z,17.77
2018-10-21T08:11:28.186Z,17.98
2018-10-21T08:13:57.551Z,18.09
2018-10-21T08:16:26.534Z,18.17
2018-10-21T08:18:55.672Z,18.06
2018-10-21T08:21:25.006Z,18.16
2018-10-21T08:23:54.017Z,18.24
2018-10-21T08:26:23.080Z,18.31
2018-10-21T08:28:52.520Z,18.38
2018-10-21T08:31:21.987Z,18.46
2018-10-21T08:33:51.148Z,18.54
2018-10-21T08:36:20.604Z,18.62
2018-10-21T08:38:49.541Z,18.63
2018-10-21T08:41:18.661Z,18.78
2018-10-21T08:43:47.988Z,18.86
2018-10-21T08:46:17.037Z,18.89
2018-10-21T08:48:46.017Z,18.77
2018-10-21T08:51:15.253Z,18.77
2018-10-21T08:53:44.269Z,18.71
2018-10-21T08:56:13.345Z,18.73
2018-10-21T08:58:42.753Z,18.71
2018-10-21T09:01:11.727Z,18.78
2018-10-21T09:03:40.666Z,18.46
2018-10-21T09:06:09.797Z,18.81
2018-10-21T09:08:39.098Z,19.02
2018-10-21T09:11:08.170Z,19.08
2018-10-21T09:13:37.152Z,19.08
2018-10-21T09:16:06.232Z,19.23
2018-10-21T09:18:35.204Z,19.30
2018-10-21T09:21:04.581Z,19.38
2018-10-21T09:23:33.709Z,19.36
2018-10-21T09:26:02.725Z,19.59
2018-10-21T09:28:32.214Z,19.71
2018-10-21T09:31:01.276Z,19.77
2018-10-21T09:33:30.404Z,19.76
2018-10-21T09:35:59.981Z,19.72
2018-10-21T09:38:29.026Z,19.52
2018-10-21T09:40:58.137Z,19.70
2018-10-21T09:43:27.333Z,19.80
2018-10-21T09:45:56.432Z,19.91
2018-10-21T09:48:25.901Z,19.92
2018-10-21T09:50:54.971Z,20.11
2018-10-21T09:53:24.103Z,20.20
2018-10-21T09:55:53.264Z,20.29
2018-10-21T09:58:22.574Z,20.32
2018-10-21T10:00:56.654Z,20.31
2018-10-21T10:03:25.833Z,20.41
2018-10-21T10:05:54.885Z,20.04
2018-10-21T10:08:24.115Z,20.33
2018-10-21T10:10:53.091Z,20.44
2018-10-21T10:13:22.221Z,20.40
2018-10-21T10:15:51.214Z,20.30
2018-10-21T10:18:20.462Z,20.53
2018-10-21T10:20:49.403Z,20.66
2018-10-21T10:23:18.619Z,20.74
2018-10-21T10:25:47.691Z,20.75
2018-10-21T10:28:16.822Z,20.91
2018-10-21T10:30:45.804Z,21.01
2018-10-21T10:33:15.056Z,21.24
2018-10-21T10:35:44.105Z,21.37
2018-10-21T10:38:13.132Z,21.51
2018-10-21T10:40:42.552Z,21.55
2018-10-21T10:43:11.765Z,21.60
2018-10-21T10:45:40.840Z,21.46
2018-10-21T10:48:10.095Z,21.32
2018-10-21T10:50:39.274Z,21.14
2018-10-21T10:53:08.420Z,21.03
2018-10-21T10:55:42.580Z,21.05
2018-10-21T11:00:48.932Z,21.29
2018-10-21T11:03:17.934Z,21.48
2018-10-21T11:07:16.645Z,21.49
2018-10-21T11:09:45.613Z,21.64
2018-10-21T11:12:14.718Z,21.69
2018-10-21T11:14:44.199Z,21.82
2018-10-21T11:17:13.079Z,21.55
2018-10-21T11:19:42.116Z,20.93
2018-10-21T11:22:11.471Z,21.24
2018-10-21T11:24:48.407Z,21.22
2018-10-21T11:27:18.172Z,21.12
2018-10-21T11:29:48.503Z,21.04
2018-10-21T11:32:17.489Z,21.10
2018-10-21T11:34:46.533Z,21.07
2018-10-21T11:37:15.511Z,20.94
2018-10-21T11:40:47.119Z,21.17
2018-10-21T11:43:16.165Z,21.77
2018-10-21T11:45:45.421Z,21.80
2018-10-21T11:48:14.347Z,22.09
2018-10-21T11:50:43.579Z,22.37
2018-10-21T11:53:12.684Z,22.61
2018-10-21T11:55:43.113Z,22.66
2018-10-21T11:58:13.415Z,22.77
2018-10-21T12:00:43.588Z,22.86
2018-10-21T12:03:13.055Z,22.93
2018-10-21T12:05:42.872Z,22.95
2018-10-21T12:08:12.345Z,22.57
2018-10-21T12:10:41.521Z,22.40
2018-10-21T12:13:10.503Z,21.91
2018-10-21T12:15:39.733Z,21.02
2018-10-21T12:18:10.140Z,21.28
2018-10-21T12:20:39.883Z,21.40
2018-10-21T12:23:09.038Z,21.77
2018-10-21T12:25:39.114Z,21.74
2018-10-21T12:28:08.747Z,21.60
2018-10-21T12:30:37.707Z,21.96
2018-10-21T12:33:06.936Z,22.22
2018-10-21T12:35:35.855Z,21.73
2018-10-21T12:38:05.016Z,21.90
2018-10-21T12:40:34.085Z,21.98
2018-10-21T12:43:03.268Z,22.12
2018-10-21T12:45:32.452Z,21.86
2018-10-21T12:48:01.289Z,22.04
2018-10-21T12:50:30.834Z,21.77
2018-10-21T12:52:59.789Z,21.36
2018-10-21T12:55:28.784Z,21.49
2018-10-21T12:57:57.986Z,21.09
2018-10-21T13:00:26.962Z,21.07
2018-10-21T13:02:56.082Z,20.94
2018-10-21T13:05:25.483Z,20.90
2018-10-21T13:07:54.474Z,21.04
2018-10-21T13:10:23.565Z,21.04
2018-10-21T13:12:52.911Z,20.82
2018-10-21T13:15:21.861Z,20.69
2018-10-21T13:17:50.848Z,20.69
2018-10-21T13:20:20.038Z,20.72
2018-10-21T13:22:49.078Z,20.87
2018-10-21T13:25:18.374Z,20.84
2018-10-21T13:27:47.439Z,20.62
2018-10-21T13:30:16.565Z,20.36
2018-10-21T13:32:45.599Z,20.53
2018-10-21T13:35:14.913Z,20.50
2018-10-21T13:37:43.952Z,20.61
2018-10-21T13:40:13.120Z,20.53
2018-10-21T13:42:42.282Z,20.62
2018-10-21T13:45:11.248Z,20.56
2018-10-21T13:47:40.509Z,20.62
2018-10-21T13:52:43.733Z,20.40
2018-10-21T13:55:13.293Z,20.53
2018-10-21T13:57:42.471Z,20.63
2018-10-21T14:00:11.636Z,20.52
2018-10-21T14:02:40.849Z,20.50
2018-10-21T14:05:10.729Z,20.22
2018-10-21T14:07:40.059Z,20.19
2018-10-21T14:10:10.495Z,20.23
2018-10-21T14:12:39.501Z,20.15
2018-10-21T14:15:08.769Z,20.12
2018-10-21T14:17:37.643Z,19.99
2018-10-21T14:20:08.102Z,19.92
2018-10-21T14:22:37.131Z,19.94
2018-10-21T14:25:07.097Z,19.87
2018-10-21T14:27:36.263Z,19.90
2018-10-21T14:30:07.542Z,19.85
2018-10-21T14:32:37.293Z,19.87
2018-10-21T14:35:08.808Z,19.76
2018-10-21T14:37:38.323Z,19.71
2018-10-21T14:40:10.206Z,19.68
2018-10-21T14:42:39.809Z,19.65
2018-10-21T14:45:11.045Z,19.65
2018-10-21T14:47:40.658Z,19.60
2018-10-21T14:50:12.488Z,19.63
2018-10-21T14:52:41.583Z,19.51
2018-10-21T14:55:11.463Z,19.48
2018-10-21T14:57:40.888Z,19.38
2018-10-21T15:00:11.636Z,19.23
2018-10-21T15:02:40.894Z,19.28
2018-10-21T15:05:11.977Z,19.27
2018-10-21T15:07:42.152Z,19.28
2018-10-21T15:10:11.976Z,19.18
2018-10-21T15:12:41.156Z,19.05
2018-10-21T15:15:11.009Z,18.96
2018-10-21T15:17:40.038Z,18.89
2018-10-21T15:20:11.632Z,18.72
2018-10-21T15:22:40.749Z,18.52
2018-10-21T15:25:11.400Z,18.43
2018-10-21T15:27:40.841Z,18.29
2018-10-21T15:30:10.819Z,18.23
2018-10-21T15:32:40.347Z,17.99
2018-10-21T15:35:09.960Z,17.94
2018-10-21T15:37:39.066Z,17.79
2018-10-21T15:40:10.157Z,17.73
2018-10-21T15:42:39.141Z,17.67
2018-10-21T15:45:11.903Z,17.61
2018-10-21T15:47:41.130Z,17.54
2018-10-21T15:50:10.457Z,17.50
2018-10-21T15:52:39.758Z,17.45
2018-10-21T15:55:09.448Z,17.34
2018-10-21T15:57:38.380Z,17.37
2018-10-21T16:00:10.090Z,17.32
2018-10-21T16:02:39.113Z,17.23
2018-10-21T16:05:09.460Z,17.19
2018-10-21T16:07:38.510Z,17.15
2018-10-21T16:10:08.626Z,17.08
2018-10-21T16:12:37.939Z,17.08
2018-10-21T16:15:11.594Z,17.02
2018-10-21T16:17:40.565Z,17.05
2018-10-21T16:20:09.897Z,17.08
2018-10-21T16:22:40.294Z,17.06
2018-10-21T16:25:13.101Z,16.99
2018-10-21T16:27:42.633Z,16.97
2018-10-21T16:30:14.027Z,17.00
2018-10-21T16:32:48.274Z,16.96
2018-10-21T16:35:17.603Z,16.91
2018-10-21T16:37:46.629Z,16.95
2018-10-21T16:40:16.804Z,16.87
2018-10-21T16:42:45.866Z,16.93
2018-10-21T16:45:15.562Z,16.94
2018-10-21T16:47:44.648Z,16.90
2018-10-21T16:50:15.579Z,16.91
2018-10-21T16:52:45.457Z,16.92
2018-10-21T16:55:15.720Z,16.95
2018-10-21T16:57:44.643Z,17.02
2018-10-21T17:00:19.245Z,17.05
2018-10-21T17:02:48.276Z,17.01
2018-10-21T17:05:17.264Z,16.94
2018-10-21T17:07:46.441Z,16.89
2018-10-21T17:10:15.756Z,16.86
2018-10-21T17:12:44.748Z,16.82
2018-10-21T17:15:14.185Z,16.82
2018-10-21T17:17:43.765Z,16.86
2018-10-21T17:20:14.635Z,16.87
2018-10-21T17:22:44.027Z,16.87
2018-10-21T17:25:13.309Z,16.95
2018-10-21T17:27:42.679Z,16.87
2018-10-21T17:30:14.387Z,16.90
2018-10-21T17:32:44.380Z,16.87
2018-10-21T17:35:14.522Z,16.86
2018-10-21T17:37:43.495Z,16.84
2018-10-21T17:40:13.686Z,16.80
2018-10-21T17:42:42.741Z,16.69
2018-10-21T17:45:14.253Z,16.70
2018-10-21T17:47:43.547Z,16.70
2018-10-21T17:50:14.050Z,16.61
2018-10-21T17:52:43.545Z,16.54
2018-10-21T17:55:12.638Z,16.53
2018-10-21T17:57:41.646Z,16.50
2018-10-21T18:00:12.354Z,16.56
2018-10-21T18:02:41.446Z,16.54
2018-10-21T18:05:12.322Z,16.54
2018-10-21T18:07:42.155Z,16.53
2018-10-21T18:10:11.865Z,16.55
2018-10-21T18:12:40.695Z,16.59
2018-10-21T18:15:11.287Z,16.57
2018-10-21T18:17:40.794Z,16.54
2018-10-21T18:20:11.743Z,16.55
2018-10-21T18:22:40.702Z,16.55
2018-10-21T18:25:10.311Z,16.67
2018-10-21T18:27:39.869Z,16.67
2018-10-21T18:30:10.513Z,16.62
2018-10-21T18:32:39.479Z,16.63
2018-10-21T18:35:10.327Z,16.58
2018-10-21T18:37:39.488Z,16.63
2018-10-21T18:41:38.298Z,16.68
2018-10-21T18:44:07.736Z,16.65
2018-10-21T18:46:36.713Z,16.79
2018-10-21T18:49:06.182Z,16.72
2018-10-21T18:51:35.138Z,16.68
2018-10-21T18:54:04.330Z,16.63
2018-10-21T18:56:33.802Z,16.69
2018-10-21T18:59:02.857Z,16.67
2018-10-21T19:01:31.956Z,16.63
2018-10-21T19:04:01.313Z,16.61
2018-10-21T19:06:30.367Z,16.56
2018-10-21T19:08:59.336Z,16.61
2018-10-21T19:11:28.797Z,16.60
2018-10-21T19:13:57.831Z,16.57
2018-10-21T19:16:26.820Z,16.60
2018-10-21T19:18:56.469Z,16.50
2018-10-21T19:21:25.405Z,16.42
2018-10-21T19:23:54.425Z,16.44
2018-10-21T19:26:23.737Z,16.48
2018-10-21T19:28:52.725Z,16.55
2018-10-21T19:31:21.877Z,16.53
2018-10-21T19:33:51.302Z,16.57
2018-10-21T19:36:20.489Z,16.60
2018-10-21T19:38:49.518Z,16.56
2018-10-21T19:41:18.534Z,16.55
2018-10-21T19:43:47.508Z,16.48
2018-10-21T19:46:16.658Z,16.52
2018-10-21T19:48:45.784Z,16.44
2018-10-21T19:51:14.796Z,16.48
2018-10-21T19:53:43.826Z,16.50
2018-10-21T19:56:13.039Z,16.44
2018-10-21T19:58:42.166Z,16.31
2018-10-21T20:01:11.261Z,16.29
2018-10-21T20:03:40.237Z,16.26
2018-10-21T20:06:09.496Z,16.37
2018-10-21T20:08:38.568Z,16.32
2018-10-21T20:11:08.032Z,16.32
2018-10-21T20:13:37.006Z,16.31
2018-10-21T20:16:06.074Z,16.23
2018-10-21T20:18:35.599Z,16.16
2018-10-21T20:21:05.040Z,16.05
2018-10-21T20:23:33.853Z,16.04
2018-10-21T20:26:03.420Z,15.90
2018-10-21T20:28:32.343Z,15.87
2018-10-21T20:31:01.537Z,15.78
2018-10-21T20:33:30.577Z,15.49
2018-10-21T20:35:59.629Z,15.29
2018-10-21T20:38:28.761Z,15.20
2018-10-21T20:40:58.207Z,15.12
2018-10-21T20:43:27.308Z,15.08
2018-10-21T20:45:56.369Z,15.10
2018-10-21T20:48:25.532Z,15.18
2018-10-21T20:50:54.676Z,15.15
2018-10-21T20:53:24.349Z,15.10
2018-10-21T20:55:53.407Z,15.03
2018-10-21T20:58:22.701Z,15.04
2018-10-21T21:00:51.677Z,15.12
2018-10-21T21:03:21.223Z,15.19
2018-10-21T21:05:50.313Z,15.23
2018-10-21T21:08:19.686Z,15.18
2018-10-21T21:10:49.324Z,15.23
2018-10-21T21:13:18.441Z,15.29
2018-10-21T21:15:47.405Z,15.27
2018-10-21T21:18:17.193Z,15.26
2018-10-21T21:20:46.154Z,15.24
2018-10-21T21:23:14.981Z,15.18
2018-10-21T21:25:44.307Z,15.21
2018-10-21T21:28:13.394Z,15.19
2018-10-21T21:30:42.573Z,15.18
2018-10-21T21:33:11.679Z,15.17
2018-10-21T21:35:40.789Z,15.13
2018-10-21T21:38:09.811Z,15.14
2018-10-21T21:40:39.247Z,15.15
2018-10-21T21:43:08.269Z,15.10
2018-10-21T21:45:37.384Z,15.09
2018-10-21T21:48:06.962Z,15.08
2018-10-21T21:50:36.063Z,15.01
2018-10-21T21:53:05.353Z,14.96
2018-10-21T21:55:34.446Z,14.96
2018-10-21T21:58:03.490Z,14.93
2018-10-21T22:00:32.641Z,14.99
2018-10-21T22:03:01.971Z,15.00
2018-10-21T22:05:31.148Z,14.98
2018-10-21T22:08:00.244Z,14.95
2018-10-21T22:10:29.852Z,14.92
2018-10-21T22:12:58.946Z,14.88
2018-10-21T22:15:28.124Z,14.86
2018-10-21T22:17:57.223Z,14.90
2018-10-21T22:20:26.395Z,14.92
2018-10-21T22:22:55.354Z,14.92
2018-10-21T22:25:24.801Z,14.89
2018-10-21T22:27:53.854Z,14.71
2018-10-21T22:30:22.869Z,14.72
2018-10-21T22:32:52.102Z,14.75
2018-10-21T22:35:21.454Z,14.77
2018-10-21T22:37:50.504Z,14.79
2018-10-21T22:40:20.092Z,14.86
2018-10-21T22:42:49.245Z,14.84
2018-10-21T22:45:18.392Z,14.81
2018-10-21T22:47:47.979Z,14.78
2018-10-21T22:50:17.168Z,14.80
2018-10-21T22:52:46.495Z,14.83
2018-10-21T22:55:15.926Z,14.87
2018-10-21T22:57:44.992Z,14.88
2018-10-21T23:00:14.099Z,14.89
2018-10-21T23:02:43.290Z,14.88
2018-10-21T23:05:12.572Z,14.86
2018-10-21T23:07:41.692Z,14.90
2018-10-21T23:10:11.041Z,14.85
2018-10-21T23:12:40.025Z,14.83
2018-10-21T23:15:09.000Z,14.92
2018-10-21T23:17:38.677Z,14.93
2018-10-21T23:20:08.283Z,14.92
2018-10-21T23:22:37.226Z,14.87
2018-10-21T23:25:07.893Z,14.86
2018-10-21T23:27:36.983Z,14.90
2018-10-21T23:30:07.327Z,14.82
2018-10-21T23:32:36.294Z,14.71
2018-10-21T23:35:05.668Z,14.68
2018-10-21T23:37:34.914Z,14.68
2018-10-21T23:40:04.387Z,14.68
2018-10-21T23:42:33.514Z,14.73
2018-10-21T23:45:02.910Z,14.80
2018-10-21T23:47:31.916Z,14.84
2018-10-21T23:50:00.956Z,14.83
2018-10-21T23:52:30.229Z,14.73
2018-10-21T23:54:59.378Z,14.72
2018-10-21T23:57:28.549Z,14.76
2018-10-21T23:59:57.847Z,14.78
